createdAt,value
2019-02-04T00:01:56.192Z,85.39
2019-02-04T00:04:22.472Z,85.60
2019-02-04T00:06:48.742Z,85.27
2019-02-04T00:09:15.012Z,85.60
2019-02-04T00:11:41.190Z,86.24
2019-02-04T00:14:07.865Z,86.48
2019-02-04T00:16:40.556Z,86.01
2019-02-04T00:19:02.343Z,85.95
2019-02-04T00:21:28.611Z,85.57
2019-02-04T00:23:54.885Z,85.88
2019-02-04T00:26:21.168Z,85.82
2019-02-04T00:28:47.495Z,85.72
2019-02-04T00:31:13.821Z,85.62
2019-02-04T00:33:40.007Z,85.67
2019-02-04T00:36:06.284Z,85.62
2019-02-04T00:38:32.574Z,85.46
2019-02-04T00:40:58.838Z,85.24
2019-02-04T00:43:25.132Z,85.30
2019-02-04T00:45:51.437Z,85.25
2019-02-04T00:48:17.743Z,84.92
2019-02-04T00:50:44.229Z,84.99
2019-02-04T00:53:10.501Z,84.90
2019-02-04T00:55:36.780Z,84.63
2019-02-04T00:58:03.044Z,84.68
2019-02-04T01:00:30.046Z,84.60
2019-02-04T01:02:56.329Z,84.65
2019-02-04T01:05:22.631Z,84.72
2019-02-04T01:07:48.924Z,84.74
2019-02-04T01:10:18.805Z,84.95
2019-02-04T01:12:45.089Z,85.73
2019-02-04T01:15:11.144Z,85.67
2019-02-04T01:17:37.419Z,85.67
2019-02-04T01:20:06.907Z,85.30
2019-02-04T01:22:33.181Z,85.19
2019-02-04T01:24:59.446Z,83.84
2019-02-04T01:27:26.103Z,83.66
2019-02-04T01:29:52.272Z,83.52
2019-02-04T01:32:18.333Z,82.50
2019-02-04T01:34:44.558Z,82.51
2019-02-04T01:37:10.621Z,83.52
2019-02-04T01:39:36.596Z,83.97
2019-02-04T01:42:02.728Z,83.76
2019-02-04T01:44:28.884Z,83.28
2019-02-04T01:46:55.053Z,82.94
2019-02-04T01:49:21.105Z,82.73
2019-02-04T01:51:47.288Z,83.29
2019-02-04T01:54:13.451Z,83.07
2019-02-04T01:56:39.738Z,83.10
2019-02-04T01:59:05.781Z,83.34
2019-02-04T02:01:31.938Z,83.09
2019-02-04T02:03:57.996Z,82.93
2019-02-04T02:06:23.947Z,82.90
2019-02-04T02:08:50.005Z,83.24
2019-02-04T02:11:16.071Z,83.39
2019-02-04T02:13:42.131Z,84.10
2019-02-04T02:16:08.188Z,84.24
2019-02-04T02:18:34.449Z,83.71
2019-02-04T02:21:00.597Z,83.76
2019-02-04T02:23:26.953Z,83.48
2019-02-04T02:25:53.000Z,83.81
2019-02-04T02:28:19.060Z,84.08
2019-02-04T02:30:45.214Z,84.71
2019-02-04T02:33:11.262Z,85.21
2019-02-04T02:35:37.439Z,84.47
2019-02-04T02:38:03.616Z,84.40
2019-02-04T02:40:31.197Z,84.75
2019-02-04T02:42:57.770Z,84.81
2019-02-04T02:45:24.029Z,85.63
2019-02-04T02:47:50.084Z,85.98
2019-02-04T02:50:16.131Z,85.38
2019-02-04T02:52:42.189Z,85.55
2019-02-04T02:55:10.930Z,86.02
2019-02-04T02:57:36.972Z,85.48
2019-02-04T03:00:09.338Z,86.09
2019-02-04T03:02:35.490Z,86.34
2019-02-04T03:05:01.457Z,85.30
2019-02-04T03:07:27.518Z,85.44
2019-02-04T03:09:53.612Z,85.34
2019-02-04T03:12:19.660Z,85.28
2019-02-04T03:14:45.712Z,84.80
2019-02-04T03:17:11.761Z,84.86
2019-02-04T03:19:38.137Z,84.81
2019-02-04T03:22:04.186Z,85.92
2019-02-04T03:24:30.247Z,86.89
2019-02-04T03:26:56.409Z,86.30
2019-02-04T03:29:22.468Z,85.69
2019-02-04T03:31:48.607Z,85.69
2019-02-04T03:34:14.561Z,85.39
2019-02-04T03:36:40.624Z,86.46
2019-02-04T03:39:07.166Z,86.59
2019-02-04T03:41:33.336Z,86.19
2019-02-04T03:43:59.474Z,85.91
2019-02-04T03:46:25.753Z,86.28
2019-02-04T03:48:51.802Z,86.14
2019-02-04T03:51:17.861Z,85.33
2019-02-04T03:53:43.802Z,85.47
2019-02-04T03:56:09.875Z,85.02
2019-02-04T03:58:35.925Z,84.82
2019-02-04T04:01:01.987Z,85.11
2019-02-04T04:03:28.334Z,85.93
2019-02-04T04:05:54.497Z,86.85
2019-02-04T04:08:20.532Z,87.03
2019-02-04T04:10:46.598Z,86.98
2019-02-04T04:13:12.745Z,86.15
2019-02-04T04:15:39.188Z,85.88
2019-02-04T04:18:15.577Z,85.55
2019-02-04T04:20:33.318Z,85.52
2019-02-04T04:22:59.470Z,84.94
2019-02-04T04:25:27.339Z,84.69
2019-02-04T04:27:53.291Z,84.88
2019-02-04T04:30:39.364Z,85.08
2019-02-04T04:33:05.541Z,84.65
2019-02-04T04:35:31.621Z,84.65
2019-02-04T04:37:57.557Z,85.03
2019-02-04T04:40:23.621Z,85.22
2019-02-04T04:42:49.978Z,84.28
2019-02-04T04:45:23.947Z,84.09
2019-02-04T04:47:50.304Z,84.15
2019-02-04T04:50:16.362Z,84.73
2019-02-04T04:52:42.429Z,84.90
2019-02-04T04:55:15.051Z,84.81
2019-02-04T04:57:41.248Z,84.89
2019-02-04T05:00:10.928Z,84.94
2019-02-04T05:02:37.619Z,84.97
2019-02-04T05:05:06.696Z,84.96
2019-02-04T05:07:32.860Z,85.32
2019-02-04T05:09:59.012Z,85.29
2019-02-04T05:12:25.076Z,85.99
2019-02-04T05:14:51.327Z,85.84
2019-02-04T05:17:17.500Z,85.77
2019-02-04T05:19:43.684Z,85.60
2019-02-04T05:22:10.513Z,85.71
2019-02-04T05:24:36.669Z,85.87
2019-02-04T05:27:02.857Z,85.73
2019-02-04T05:29:29.128Z,85.41
2019-02-04T05:31:55.325Z,85.15
2019-02-04T05:34:21.609Z,85.35
2019-02-04T05:36:47.776Z,85.15
2019-02-04T05:39:13.916Z,85.71
2019-02-04T05:41:42.824Z,85.33
2019-02-04T05:44:08.337Z,86.21
2019-02-04T05:46:34.526Z,86.63
2019-02-04T05:49:00.715Z,86.70
2019-02-04T05:51:26.770Z,86.59
2019-02-04T05:53:52.960Z,86.31
2019-02-04T05:56:19.035Z,86.24
2019-02-04T05:58:45.728Z,85.53
2019-02-04T06:01:11.934Z,85.10
2019-02-04T06:03:38.087Z,83.97
2019-02-04T06:06:04.254Z,83.84
2019-02-04T06:08:30.548Z,83.61
2019-02-04T06:10:56.711Z,83.28
2019-02-04T06:13:22.970Z,83.78
2019-02-04T06:15:49.471Z,83.34
2019-02-04T06:18:16.124Z,82.84
2019-02-04T06:20:42.505Z,82.02
2019-02-04T06:23:08.823Z,82.13
2019-02-04T06:25:34.922Z,81.77
2019-02-04T06:28:00.992Z,81.68
2019-02-04T06:30:27.169Z,82.12
2019-02-04T06:32:53.236Z,82.78
2019-02-04T06:35:19.319Z,82.46
2019-02-04T06:37:46.866Z,81.80
2019-02-04T06:40:14.952Z,81.67
2019-02-04T06:42:40.899Z,81.37
2019-02-04T06:45:10.279Z,81.13
2019-02-04T06:47:36.437Z,81.32
2019-02-04T06:50:05.314Z,81.48
2019-02-04T06:52:31.479Z,81.45
2019-02-04T06:54:58.043Z,80.18
2019-02-04T06:57:24.204Z,79.79
2019-02-04T06:59:50.263Z,80.09
2019-02-04T07:02:16.418Z,80.01
2019-02-04T07:04:42.570Z,80.08
2019-02-04T07:07:08.743Z,78.92
2019-02-04T07:09:34.810Z,78.93
2019-02-04T07:12:00.874Z,78.87
2019-02-04T07:14:27.419Z,78.66
2019-02-04T07:16:53.691Z,78.50
2019-02-04T07:19:24.325Z,78.45
2019-02-04T07:21:47.837Z,76.84
2019-02-04T07:24:13.886Z,77.15
2019-02-04T07:26:40.052Z,76.64
2019-02-04T07:29:06.126Z,76.43
2019-02-04T07:31:32.303Z,75.27
2019-02-04T07:33:58.858Z,75.14
2019-02-04T07:36:25.223Z,75.10
2019-02-04T07:38:51.297Z,75.22
2019-02-04T07:41:17.463Z,75.61
2019-02-04T07:43:43.608Z,75.11
2019-02-04T07:46:09.680Z,74.54
2019-02-04T07:48:35.733Z,74.25
2019-02-04T07:51:01.996Z,74.46
2019-02-04T07:53:28.640Z,74.91
2019-02-04T07:55:54.816Z,74.57
2019-02-04T07:58:20.879Z,73.53
2019-02-04T08:00:46.853Z,72.90
2019-02-04T08:03:15.025Z,72.98
2019-02-04T08:05:41.002Z,72.75
2019-02-04T08:08:07.067Z,72.35
2019-02-04T08:10:33.123Z,72.04
2019-02-04T08:13:01.903Z,71.62
2019-02-04T08:15:30.759Z,71.80
2019-02-04T08:17:56.920Z,70.54
2019-02-04T08:20:23.282Z,70.73
2019-02-04T08:22:49.341Z,70.20
2019-02-04T08:25:16.119Z,69.39
2019-02-04T08:27:42.280Z,68.49
2019-02-04T08:30:21.418Z,67.76
2019-02-04T08:32:47.473Z,67.94
2019-02-04T08:35:13.656Z,68.00
2019-02-04T08:37:39.918Z,66.85
2019-02-04T08:40:09.694Z,66.52
2019-02-04T08:42:35.751Z,68.75
2019-02-04T08:45:01.936Z,67.69
2019-02-04T08:47:28.604Z,66.98
2019-02-04T08:49:58.553Z,65.98
2019-02-04T08:52:22.644Z,66.66
2019-02-04T08:54:48.904Z,64.06
2019-02-04T08:57:14.998Z,64.32
2019-02-04T08:59:41.068Z,63.02
2019-02-04T09:02:07.338Z,63.27
2019-02-04T09:04:33.607Z,62.93
2019-02-04T09:06:59.665Z,62.92
2019-02-04T09:09:26.116Z,62.54
2019-02-04T09:11:52.178Z,62.59
2019-02-04T09:14:18.335Z,62.33
2019-02-04T09:16:44.616Z,60.79
2019-02-04T09:19:10.785Z,60.78
2019-02-04T09:21:36.949Z,59.83
2019-02-04T09:24:04.081Z,59.82
2019-02-04T09:26:30.246Z,60.44
2019-02-04T09:28:56.888Z,63.01
2019-02-04T09:31:23.281Z,62.16
2019-02-04T09:33:49.557Z,60.48
2019-02-04T09:36:15.804Z,60.96
2019-02-04T09:38:42.131Z,60.88
2019-02-04T09:41:08.186Z,62.46
2019-02-04T09:43:34.262Z,61.97
2019-02-04T09:46:00.468Z,62.46
2019-02-04T09:48:26.638Z,63.34
2019-02-04T09:50:52.897Z,63.05
2019-02-04T09:53:19.101Z,62.84
2019-02-04T09:55:45.147Z,62.09
2019-02-04T09:58:11.423Z,61.35
2019-02-04T10:00:37.700Z,61.33
2019-02-04T10:03:05.182Z,62.08
2019-02-04T10:05:31.346Z,62.45
2019-02-04T10:07:58.017Z,61.78
2019-02-04T10:10:26.427Z,60.86
2019-02-04T10:12:52.790Z,61.24
2019-02-04T10:15:26.913Z,61.86
2019-02-04T10:17:52.999Z,61.03
2019-02-04T10:20:19.116Z,58.98
2019-02-04T10:22:45.396Z,58.40
2019-02-04T10:25:21.144Z,56.33
2019-02-04T10:27:47.389Z,56.04
2019-02-04T10:30:22.111Z,55.64
2019-02-04T10:32:48.180Z,55.33
2019-02-04T10:35:17.217Z,55.67
2019-02-04T10:37:43.236Z,54.94
2019-02-04T10:40:15.400Z,53.48
2019-02-04T10:42:41.604Z,54.84
2019-02-04T10:45:10.651Z,53.46
2019-02-04T10:47:36.716Z,52.72
2019-02-04T10:50:09.651Z,53.02
2019-02-04T10:52:35.796Z,52.98
2019-02-04T10:55:03.169Z,54.03
2019-02-04T10:57:40.028Z,54.88
2019-02-04T10:59:57.445Z,54.66
2019-02-04T11:02:23.649Z,54.94
2019-02-04T11:04:49.803Z,54.71
2019-02-04T11:07:16.069Z,54.60
2019-02-04T11:09:42.310Z,55.43
2019-02-04T11:12:08.282Z,53.99
2019-02-04T11:14:34.458Z,54.37
2019-02-04T11:17:00.746Z,56.76
2019-02-04T11:19:26.794Z,56.33
2019-02-04T11:21:53.090Z,57.00
2019-02-04T11:24:19.320Z,54.03
2019-02-04T11:26:45.410Z,53.75
2019-02-04T11:29:11.679Z,54.84
2019-02-04T11:31:38.361Z,54.23
2019-02-04T11:34:04.625Z,54.21
2019-02-04T11:36:30.851Z,54.75
2019-02-04T11:38:57.131Z,54.56
2019-02-04T11:41:23.536Z,55.15
2019-02-04T11:43:50.284Z,55.65
2019-02-04T11:46:16.549Z,56.10
2019-02-04T11:48:42.787Z,56.08
2019-02-04T11:51:10.167Z,56.63
2019-02-04T11:53:36.512Z,56.89
2019-02-04T11:56:02.586Z,56.70
2019-02-04T11:58:28.851Z,56.27
2019-02-04T12:00:54.916Z,56.45
2019-02-04T12:03:20.976Z,56.30
2019-02-04T12:05:47.145Z,56.76
2019-02-04T12:08:13.296Z,57.72
2019-02-04T12:10:46.192Z,57.58
2019-02-04T12:13:12.444Z,58.13
2019-02-04T12:15:38.713Z,58.53
2019-02-04T12:18:04.965Z,58.73
2019-02-04T12:20:31.237Z,58.71
2019-02-04T12:22:57.393Z,58.02
2019-02-04T12:25:27.414Z,58.07
2019-02-04T12:27:54.788Z,58.18
2019-02-04T12:30:23.991Z,58.21
2019-02-04T12:32:50.272Z,57.66
2019-02-04T12:35:16.329Z,58.07
2019-02-04T12:37:42.611Z,57.90
2019-02-04T12:40:13.893Z,57.84
2019-02-04T12:42:40.170Z,57.86
2019-02-04T12:45:10.351Z,58.86
2019-02-04T12:47:36.623Z,59.15
2019-02-04T12:50:05.803Z,58.51
2019-02-04T12:52:32.080Z,58.80
2019-02-04T12:54:58.232Z,58.12
2019-02-04T12:57:24.500Z,58.17
2019-02-04T12:59:50.659Z,58.13
2019-02-04T13:02:17.229Z,58.00
2019-02-04T13:04:43.485Z,57.89
2019-02-04T13:07:09.559Z,58.21
2019-02-04T13:09:35.826Z,58.64
2019-02-04T13:12:02.079Z,59.06
2019-02-04T13:14:28.252Z,59.23
2019-02-04T13:16:54.322Z,59.71
2019-02-04T13:19:20.603Z,59.62
2019-02-04T13:21:47.187Z,59.81
2019-02-04T13:24:13.248Z,60.35
2019-02-04T13:26:39.520Z,59.93
2019-02-04T13:29:05.720Z,60.25
2019-02-04T13:31:31.904Z,60.53
2019-02-04T13:33:58.196Z,60.74
2019-02-04T13:36:24.475Z,60.54
2019-02-04T13:38:50.631Z,61.09
2019-02-04T13:41:17.268Z,60.72
2019-02-04T13:43:43.581Z,60.37
2019-02-04T13:46:09.830Z,60.12
2019-02-04T13:48:36.155Z,60.15
2019-02-04T13:51:02.426Z,60.36
2019-02-04T13:53:28.688Z,59.85
2019-02-04T13:55:54.751Z,59.73
2019-02-04T13:58:21.761Z,59.70
2019-02-04T14:00:48.250Z,60.00
2019-02-04T14:03:17.450Z,60.14
2019-02-04T14:05:42.688Z,60.75
2019-02-04T14:08:08.862Z,60.69
2019-02-04T14:10:37.581Z,60.78
2019-02-04T14:13:03.972Z,61.00
2019-02-04T14:15:30.239Z,61.69
2019-02-04T14:17:56.699Z,61.27
2019-02-04T14:20:24.390Z,61.23
2019-02-04T14:22:53.320Z,61.60
2019-02-04T14:25:18.924Z,61.67
2019-02-04T14:27:45.121Z,61.88
2019-02-04T14:30:26.964Z,61.79
2019-02-04T14:32:53.256Z,62.39
2019-02-04T14:35:19.417Z,62.21
2019-02-04T14:37:45.517Z,61.68
2019-02-04T14:40:18.748Z,61.48
2019-02-04T14:42:41.523Z,61.60
2019-02-04T14:45:20.947Z,62.06
2019-02-04T14:48:03.148Z,62.39
2019-02-04T14:50:37.653Z,62.80
2019-02-04T14:53:31.337Z,63.01
2019-02-04T14:56:10.349Z,63.51
2019-02-04T14:58:58.174Z,63.62
2019-02-04T15:02:18.637Z,64.13
2019-02-04T15:05:25.050Z,65.12
2019-02-04T15:08:18.761Z,65.95
2019-02-04T15:10:51.844Z,66.44
2019-02-04T15:13:51.845Z,66.89
2019-02-04T15:16:27.780Z,67.49
2019-02-04T15:19:20.479Z,68.36
2019-02-04T15:22:33.113Z,69.08
2019-02-04T15:25:27.465Z,69.26
2019-02-04T15:28:15.370Z,69.69
2019-02-04T15:31:18.607Z,70.12
2019-02-04T15:33:54.277Z,70.05
2019-02-04T15:36:47.985Z,70.98
2019-02-04T15:42:31.631Z,72.37
2019-02-04T15:44:58.607Z,72.60
2019-02-04T15:47:28.552Z,72.83
2019-02-04T15:50:15.239Z,73.20
2019-02-04T15:52:45.550Z,73.63
2019-02-04T15:55:13.038Z,73.02
2019-02-04T15:57:39.314Z,73.23
2019-02-04T16:00:09.081Z,74.15
2019-02-04T16:02:35.370Z,75.32
2019-02-04T16:05:01.530Z,75.73
2019-02-04T16:07:27.849Z,76.18
2019-02-04T16:09:54.624Z,76.28
2019-02-04T16:12:20.956Z,76.45
2019-02-04T16:14:47.259Z,76.16
2019-02-04T16:17:13.534Z,75.94
2019-02-04T16:19:39.911Z,76.76
2019-02-04T16:22:06.185Z,76.95
2019-02-04T16:24:32.485Z,77.18
2019-02-04T16:26:58.806Z,76.71
2019-02-04T16:29:25.580Z,77.02
2019-02-04T16:31:51.863Z,76.81
2019-02-04T16:34:18.086Z,76.64
2019-02-04T16:36:44.370Z,76.41
2019-02-04T16:39:10.699Z,76.87
2019-02-04T16:41:36.979Z,76.62
2019-02-04T16:44:03.477Z,76.41
2019-02-04T16:46:29.759Z,76.52
2019-02-04T16:48:56.431Z,76.93
2019-02-04T16:51:22.734Z,76.38
2019-02-04T16:53:48.944Z,76.38
2019-02-04T16:56:15.135Z,76.06
2019-02-04T16:58:41.400Z,76.19
2019-02-04T17:01:07.683Z,76.83
2019-02-04T17:03:33.852Z,76.71
2019-02-04T17:06:00.017Z,76.45
2019-02-04T17:08:26.580Z,77.05
2019-02-04T17:10:52.962Z,76.58
2019-02-04T17:13:19.233Z,76.10
2019-02-04T17:15:45.516Z,76.85
2019-02-04T17:18:13.597Z,77.06
2019-02-04T17:20:39.792Z,77.49
2019-02-04T17:23:05.970Z,77.10
2019-02-04T17:25:32.253Z,76.75
2019-02-04T17:28:00.781Z,77.08
2019-02-04T17:30:27.071Z,76.61
2019-02-04T17:32:53.376Z,76.30
2019-02-04T17:35:19.590Z,76.64
2019-02-04T17:37:45.873Z,76.87
2019-02-04T17:40:17.645Z,76.76
2019-02-04T17:42:43.954Z,76.39
2019-02-04T17:45:12.531Z,76.64
2019-02-04T17:47:38.825Z,76.33
2019-02-04T17:50:28.453Z,76.16
2019-02-04T17:52:54.889Z,76.48
2019-02-04T17:55:48.890Z,76.76
2019-02-04T17:58:15.171Z,77.69
2019-02-04T18:00:45.748Z,77.86
2019-02-04T18:03:11.956Z,77.38
2019-02-04T18:05:38.169Z,77.83
2019-02-04T18:08:06.560Z,77.83
2019-02-04T18:10:32.843Z,78.39
2019-02-04T18:12:59.116Z,78.53
2019-02-04T18:15:25.383Z,79.08
2019-02-04T18:17:51.678Z,79.23
2019-02-04T18:20:17.879Z,79.31
2019-02-04T18:22:44.158Z,79.14
2019-02-04T18:25:13.144Z,79.41
2019-02-04T18:27:39.430Z,79.38
2019-02-04T18:30:09.013Z,79.40
2019-02-04T18:32:35.296Z,79.73
2019-02-04T18:35:01.401Z,79.87
2019-02-04T18:37:28.084Z,79.67
2019-02-04T18:39:54.364Z,79.73
2019-02-04T18:42:20.637Z,79.82
2019-02-04T18:44:47.380Z,80.22
2019-02-04T18:47:13.566Z,80.47
2019-02-04T18:49:39.862Z,80.51
2019-02-04T18:52:06.155Z,80.73
2019-02-04T18:54:32.730Z,80.97
2019-02-04T18:56:58.924Z,81.07
2019-02-04T18:59:25.196Z,80.65
2019-02-04T19:01:51.570Z,80.60
2019-02-04T19:04:17.848Z,80.64
2019-02-04T19:06:47.753Z,80.49
2019-02-04T19:09:12.650Z,80.19
2019-02-04T19:11:38.917Z,80.22
2019-02-04T19:14:05.212Z,80.02
2019-02-04T19:16:31.478Z,79.74
2019-02-04T19:18:57.735Z,79.60
2019-02-04T19:21:24.321Z,79.93
2019-02-04T19:23:50.610Z,79.86
2019-02-04T19:26:16.783Z,79.56
2019-02-04T19:28:43.071Z,79.18
2019-02-04T19:31:09.847Z,79.06
2019-02-04T19:33:36.431Z,78.75
2019-02-04T19:36:02.834Z,79.14
2019-02-04T19:38:29.286Z,79.46
2019-02-04T19:40:55.956Z,79.62
2019-02-04T19:43:22.021Z,79.42
2019-02-04T19:45:48.323Z,79.45
2019-02-04T19:48:14.603Z,79.34
2019-02-04T19:50:40.759Z,79.37
2019-02-04T19:53:07.137Z,79.59
2019-02-04T19:55:33.413Z,78.62
2019-02-04T19:57:59.678Z,78.58
2019-02-04T20:00:26.400Z,78.01
2019-02-04T20:02:52.788Z,78.45
2019-02-04T20:05:24.652Z,78.76
2019-02-04T20:07:50.919Z,78.91
2019-02-04T20:10:18.512Z,79.19
2019-02-04T20:12:44.791Z,79.04
2019-02-04T20:15:19.767Z,78.67
2019-02-04T20:17:45.955Z,79.30
2019-02-04T20:20:12.247Z,79.38
2019-02-04T20:22:38.625Z,79.28
2019-02-04T20:25:28.286Z,79.41
2019-02-04T20:27:54.592Z,79.01
2019-02-04T20:30:26.738Z,79.56
2019-02-04T20:32:53.005Z,79.88
2019-02-04T20:35:19.308Z,79.33
2019-02-04T20:37:45.484Z,79.82
2019-02-04T20:40:20.171Z,79.72
2019-02-04T20:42:46.350Z,79.43
2019-02-04T20:45:13.615Z,78.98
2019-02-04T20:47:40.518Z,79.21
2019-02-04T20:50:10.427Z,79.29
2019-02-04T20:52:36.708Z,79.40
2019-02-04T20:55:04.626Z,79.97
2019-02-04T20:57:30.907Z,80.08
2019-02-04T20:59:57.088Z,80.55
2019-02-04T21:02:23.372Z,80.61
2019-02-04T21:04:49.942Z,80.46
2019-02-04T21:07:16.019Z,80.62
2019-02-04T21:09:42.297Z,81.02
2019-02-04T21:12:08.493Z,80.90
2019-02-04T21:14:34.772Z,80.46
2019-02-04T21:17:01.023Z,80.68
2019-02-04T21:19:27.112Z,80.94
2019-02-04T21:21:53.282Z,81.61
2019-02-04T21:24:19.846Z,81.74
2019-02-04T21:26:46.301Z,81.57
2019-02-04T21:29:12.568Z,80.95
2019-02-04T21:31:38.718Z,80.18
2019-02-04T21:34:05.669Z,80.23
2019-02-04T21:36:31.915Z,80.48
2019-02-04T21:38:58.092Z,81.29
2019-02-04T21:41:24.253Z,81.18
2019-02-04T21:43:51.025Z,81.38
2019-02-04T21:46:17.189Z,81.52
2019-02-04T21:48:43.354Z,81.81
2019-02-04T21:51:09.423Z,82.37
2019-02-04T21:53:35.588Z,82.40
2019-02-04T21:56:01.866Z,82.48
2019-02-04T21:58:28.125Z,82.60
2019-02-04T22:00:54.382Z,82.58
2019-02-04T22:03:20.427Z,82.81
2019-02-04T22:05:46.586Z,82.46
2019-02-04T22:08:12.848Z,82.14
2019-02-04T22:10:39.323Z,82.17
2019-02-04T22:13:05.368Z,82.23
2019-02-04T22:15:31.837Z,82.22
2019-02-04T22:17:57.884Z,82.15
2019-02-04T22:20:24.058Z,81.97
2019-02-04T22:22:50.095Z,82.17
2019-02-04T22:25:21.141Z,82.10
2019-02-04T22:27:47.302Z,82.04
2019-02-04T22:30:18.309Z,81.87
2019-02-04T22:32:44.471Z,81.97
2019-02-04T22:35:10.614Z,81.82
2019-02-04T22:37:36.779Z,81.89
2019-02-04T22:40:06.670Z,81.72
2019-02-04T22:42:33.157Z,81.61
2019-02-04T22:44:59.319Z,81.73
2019-02-04T22:47:25.380Z,81.81
2019-02-04T22:49:51.545Z,81.78
2019-02-04T22:52:17.612Z,81.36
2019-02-04T22:54:43.660Z,81.15
2019-02-04T22:57:09.817Z,81.01
2019-02-04T22:59:35.868Z,81.10
2019-02-04T23:02:02.127Z,80.87
2019-02-04T23:04:28.188Z,81.24
2019-02-04T23:06:54.236Z,80.95
2019-02-04T23:09:20.400Z,80.79
2019-02-04T23:11:46.550Z,80.83
2019-02-04T23:14:12.591Z,80.67
2019-02-04T23:16:38.753Z,80.68
2019-02-04T23:19:04.810Z,80.65
2019-02-04T23:21:30.978Z,81.04
2019-02-04T23:23:57.134Z,80.91
2019-02-04T23:26:23.208Z,81.00
2019-02-04T23:28:49.297Z,81.25
2019-02-04T23:31:15.344Z,81.43
2019-02-04T23:33:41.725Z,81.59
2019-02-04T23:36:07.780Z,81.41
2019-02-04T23:38:33.975Z,81.25
2019-02-04T23:41:00.137Z,80.98
2019-02-04T23:43:26.397Z,81.18
2019-02-04T23:45:52.453Z,80.96
2019-02-04T23:48:18.752Z,80.62
2019-02-04T23:50:44.912Z,80.54
2019-02-04T23:53:11.079Z,80.49
2019-02-04T23:55:37.138Z,80.31
2019-02-04T23:58:03.301Z,80.34
